Time;durP1;ratioP1;P1;durP2;ratioP2;P2;SDS_P1;SDS_P2;PMS_P1;PMS_P2;Temp;Humidity;BMP_temperature;BMP_pressure;BME280_temperature;BME280_humidity;BME280_pressure;Samples;Min_cycle;Max_cycle;Signal;HPM_P1;HPM_P2
2021/11/30 00:02:01;;;;;;;32.10;15.40;;;;;;;0.57;78.13;97487.77;102974;1320;99872;-69
2021/11/30 00:04:29;;;;;;;28.60;13.30;;;;;;;0.56;78.00;97492.91;103072;1320;99320;-69
2021/11/30 00:07:01;;;;;;;31.60;15.00;;;;;;;0.53;78.16;97496.41;103077;1316;113611;-69
2021/11/30 00:12:20;;;;;;;28.20;13.70;;;;;;;0.52;78.11;97507.28;102969;1316;107868;-67
2021/11/30 00:14:52;;;;;;;31.80;13.40;;;;;;;0.51;78.14;97512.54;103032;1317;99330;-68
2021/11/30 00:17:21;;;;;;;28.40;13.10;;;;;;;0.52;78.05;97517.05;103069;1316;97763;-67
2021/11/30 00:19:51;;;;;;;29.20;14.30;;;;;;;0.53;78.13;97515.58;103058;1315;113233;-69
2021/11/30 00:22:23;;;;;;;28.40;13.20;;;;;;;0.54;78.24;97518.48;103044;1316;97205;-68
2021/11/30 00:24:53;;;;;;;23.50;11.20;;;;;;;0.55;78.13;97525.21;103001;1322;108472;-67
2021/11/30 00:27:23;;;;;;;30.00;14.00;;;;;;;0.56;78.17;97533.02;103137;1317;99252;-67
2021/11/30 00:29:53;;;;;;;30.40;14.50;;;;;;;0.59;78.16;97531.30;103092;1322;99223;-67
2021/11/30 00:32:21;;;;;;;28.70;13.10;;;;;;;0.60;78.12;97536.30;102992;1319;114301;-66
2021/11/30 00:34:51;;;;;;;30.20;13.50;;;;;;;0.62;78.12;97536.03;103072;1316;96617;-68
2021/11/30 00:37:18;;;;;;;29.20;14.20;;;;;;;0.63;78.26;97534.91;103090;1316;108428;-66
2021/11/30 00:39:46;;;;;;;29.30;13.00;;;;;;;0.64;78.02;97541.64;103113;1316;99247;-69
2021/11/30 00:42:14;;;;;;;28.20;13.40;;;;;;;0.66;78.08;97542.58;102994;1322;99241;-68
2021/11/30 00:44:43;;;;;;;25.80;12.80;;;;;;;0.68;78.20;97553.27;103127;1316;113507;-68
2021/11/30 00:47:18;;;;;;;26.70;11.80;;;;;;;0.69;78.30;97552.20;103036;1316;96625;-69
2021/11/30 00:49:51;;;;;;;28.30;13.30;;;;;;;0.70;78.12;97555.23;103080;1322;108510;-67
2021/11/30 00:52:22;;;;;;;28.80;12.90;;;;;;;0.72;78.18;97566.49;103150;1312;99342;-68
2021/11/30 00:54:51;;;;;;;28.60;13.70;;;;;;;0.72;78.11;97571.90;103111;1317;99237;-67
2021/11/30 00:57:21;;;;;;;27.70;13.70;;;;;;;0.72;78.19;97574.31;103073;1322;113519;-68
2021/11/30 00:59:51;;;;;;;29.50;14.40;;;;;;;0.73;78.17;97576.38;103140;1316;97701;-68
2021/11/30 01:02:21;;;;;;;28.60;13.90;;;;;;;0.73;78.09;97574.09;103053;1320;109276;-69
2021/11/30 01:04:50;;;;;;;29.30;14.60;;;;;;;0.73;78.31;97572.70;103015;1316;99229;-67
2021/11/30 01:07:21;;;;;;;29.60;14.80;;;;;;;0.75;78.07;97577.87;103071;1316;99304;-67
2021/11/30 01:09:49;;;;;;;31.10;15.70;;;;;;;0.75;78.19;97579.76;102977;1316;111956;-68
2021/11/30 01:12:17;;;;;;;29.60;14.50;;;;;;;0.77;78.07;97578.81;103042;1322;99269;-69
2021/11/30 01:14:46;;;;;;;28.80;14.30;;;;;;;0.77;78.25;97575.48;102982;1316;108442;-66
2021/11/30 01:17:15;;;;;;;30.50;15.00;;;;;;;0.79;78.15;97573.46;103224;1315;98949;-66
2021/11/30 01:19:46;;;;;;;33.30;15.40;;;;;;;0.79;78.09;97578.84;103017;1316;99304;-67
2021/11/30 01:22:18;;;;;;;32.20;16.40;;;;;;;0.78;78.05;97575.44;102796;1320;113096;-67
2021/11/30 01:24:46;;;;;;;30.70;15.00;;;;;;;0.79;78.18;97577.28;102854;1319;99342;-68
2021/11/30 01:27:17;;;;;;;30.70;14.90;;;;;;;0.80;78.24;97577.41;103106;1316;108324;-69
2021/11/30 01:29:45;;;;;;;32.30;14.80;;;;;;;0.81;78.03;97581.36;102924;1320;99976;-69
2021/11/30 01:32:15;;;;;;;32.20;16.90;;;;;;;0.80;78.17;97584.55;103198;1316;99238;-67
2021/11/30 01:34:43;;;;;;;35.30;16.70;;;;;;;0.79;78.06;97584.26;103131;1320;113478;-69
2021/11/30 01:37:15;;;;;;;36.30;18.60;;;;;;;0.78;78.08;97583.80;103068;1316;99266;-67
2021/11/30 01:39:50;;;;;;;34.20;18.50;;;;;;;0.76;78.00;97585.80;102986;1320;106779;-68
2021/11/30 01:42:21;;;;;;;34.10;17.40;;;;;;;0.77;78.05;97589.79;103116;1316;99260;-68
2021/11/30 01:44:55;;;;;;;34.30;16.90;;;;;;;0.78;78.03;97592.02;103010;1322;99377;-68
2021/11/30 01:50:00;;;;;;;33.10;17.20;;;;;;;0.81;78.09;97594.48;103006;1316;99393;-68
2021/11/30 01:52:31;;;;;;;34.70;18.10;;;;;;;0.80;77.99;97598.52;103056;1316;108467;-67
2021/11/30 01:54:58;;;;;;;34.30;18.60;;;;;;;0.80;78.10;97594.85;103025;1315;99273;-68
2021/11/30 01:57:27;;;;;;;31.30;16.80;;;;;;;0.80;78.01;97599.73;103068;1316;97767;-68
2021/11/30 01:59:58;;;;;;;34.30;17.30;;;;;;;0.81;78.21;97599.69;103127;1316;113506;-69
2021/11/30 02:02:27;;;;;;;30.80;16.50;;;;;;;0.80;78.08;97601.46;103007;1322;99332;-69
2021/11/30 02:04:56;;;;;;;29.80;15.40;;;;;;;0.80;78.00;97607.97;103065;1316;108435;-69
2021/11/30 02:07:24;;;;;;;31.70;15.50;;;;;;;0.79;78.06;97604.16;102820;1319;96635;-68
2021/11/30 02:09:52;;;;;;;32.60;16.00;;;;;;;0.78;78.01;97604.22;103061;1317;99237;-68
2021/11/30 02:12:23;;;;;;;31.90;16.10;;;;;;;0.77;78.04;97605.48;103100;1316;113578;-68
2021/11/30 02:14:52;;;;;;;29.30;15.00;;;;;;;0.75;78.00;97610.10;103191;1317;99269;-68
2021/11/30 02:17:21;;;;;;;27.70;13.20;;;;;;;0.73;78.04;97613.19;103078;1316;107719;-68
2021/11/30 02:19:57;;;;;;;30.80;13.90;;;;;;;0.71;78.14;97615.05;102980;1317;99387;-68
2021/11/30 02:22:28;;;;;;;30.10;13.60;;;;;;;0.69;77.87;97617.27;103116;1316;96538;-68
2021/11/30 02:24:58;;;;;;;26.50;12.30;;;;;;;0.67;77.98;97623.29;103028;1316;111552;-67
2021/11/30 02:27:26;;;;;;;28.20;14.10;;;;;;;0.67;78.18;97627.32;103069;1323;100737;-68
2021/11/30 02:29:53;;;;;;;28.50;13.90;;;;;;;0.66;77.90;97629.45;102908;1319;108498;-68
2021/11/30 02:32:21;;;;;;;27.00;13.00;;;;;;;0.65;77.99;97627.06;102991;1322;99348;-69
2021/11/30 02:34:49;;;;;;;27.30;13.00;;;;;;;0.65;78.01;97625.15;103128;1315;99361;-68
2021/11/30 02:37:23;;;;;;;28.00;12.20;;;;;;;0.64;77.96;97633.78;103062;1316;112636;-68
2021/11/30 02:39:55;;;;;;;27.70;13.20;;;;;;;0.63;78.14;97628.77;102990;1319;99352;-70
2021/11/30 02:42:23;;;;;;;31.10;14.20;;;;;;;0.63;78.03;97625.61;103041;1316;108427;-70
2021/11/30 02:44:51;;;;;;;28.40;13.30;;;;;;;0.65;78.03;97629.70;103028;1316;97347;-71
2021/11/30 02:47:19;;;;;;;28.00;13.40;;;;;;;0.65;77.99;97625.86;103178;1316;99274;-69
2021/11/30 02:49:48;;;;;;;27.10;12.60;;;;;;;0.65;78.00;97630.06;103179;1316;112794;-69
2021/11/30 02:52:21;;;;;;;30.40;14.00;;;;;;;0.65;78.13;97633.36;102897;1322;122890;-69
2021/11/30 02:54:54;;;;;;;27.10;14.00;;;;;;;0.66;77.89;97628.08;103017;1316;106915;-71
2021/11/30 02:57:25;;;;;;;29.60;14.80;;;;;;;0.66;78.03;97629.48;103008;1316;99110;-70
2021/11/30 02:59:57;;;;;;;28.10;13.70;;;;;;;0.66;78.07;97620.38;103046;1316;99210;-69
2021/11/30 03:02:29;;;;;;;28.80;15.00;;;;;;;0.67;78.00;97623.48;102999;1316;112861;-68
2021/11/30 03:05:02;;;;;;;29.80;15.20;;;;;;;0.68;78.06;97619.05;103068;1323;100525;-69
2021/11/30 03:07:38;;;;;;;29.50;13.70;;;;;;;0.69;78.20;97620.24;102993;1316;107630;-68
2021/11/30 03:10:14;;;;;;;29.40;14.60;;;;;;;0.69;78.10;97621.42;103016;1316;99310;-68
2021/11/30 03:12:46;;;;;;;30.00;13.50;;;;;;;0.70;78.05;97624.53;103139;1320;99235;-68
2021/11/30 03:15:19;;;;;;;29.10;14.30;;;;;;;0.71;78.04;97627.09;103187;1316;112993;-68
2021/11/30 03:17:50;;;;;;;27.50;13.30;;;;;;;0.73;78.16;97629.59;103065;1316;99322;-68
2021/11/30 03:20:19;;;;;;;27.60;14.00;;;;;;;0.74;78.09;97629.04;103024;1316;106656;-67
2021/11/30 03:22:47;;;;;;;27.20;13.30;;;;;;;0.75;78.09;97629.50;103000;1316;99362;-68
2021/11/30 03:25:18;;;;;;;26.30;11.70;;;;;;;0.76;78.30;97638.34;103080;1320;99306;-69
2021/11/30 03:27:50;;;;;;;26.30;12.20;;;;;;;0.78;78.07;97638.27;103080;1316;113503;-67
2021/11/30 03:30:22;;;;;;;26.50;12.10;;;;;;;0.80;78.18;97640.92;103077;1323;99329;-70
2021/11/30 03:35:38;;;;;;;26.60;12.70;;;;;;;0.81;78.08;97646.44;103051;1320;97817;-67
2021/11/30 03:38:07;;;;;;;25.20;12.00;;;;;;;0.79;78.03;97646.59;103161;1317;99202;-67
2021/11/30 03:40:35;;;;;;;24.90;11.50;;;;;;;0.79;78.09;97653.57;103044;1316;113474;-68
2021/11/30 03:43:03;;;;;;;26.20;11.90;;;;;;;0.79;78.15;97648.98;103048;1316;99359;-68
2021/11/30 03:45:32;;;;;;;25.80;12.40;;;;;;;0.79;78.20;97650.61;103023;1316;108524;-68
2021/11/30 03:48:00;;;;;;;24.30;10.30;;;;;;;0.79;78.10;97650.25;103095;1320;99270;-68
2021/11/30 03:50:28;;;;;;;27.10;12.80;;;;;;;0.81;78.21;97652.75;103003;1317;99249;-68
2021/11/30 03:52:57;;;;;;;26.90;11.60;;;;;;;0.81;78.19;97651.70;103032;1323;113124;-68
2021/11/30 03:55:25;;;;;;;23.80;11.30;;;;;;;0.81;78.28;97649.42;102955;1319;99280;-67
2021/11/30 03:57:59;;;;;;;24.20;11.10;;;;;;;0.82;78.11;97647.77;103042;1320;108485;-67
2021/11/30 04:00:32;;;;;;;25.70;11.90;;;;;;;0.84;78.35;97651.66;103004;1316;99194;-67
2021/11/30 04:03:00;;;;;;;22.90;10.20;;;;;;;0.84;78.33;97651.84;103057;1316;96746;-67
2021/11/30 04:05:28;;;;;;;25.30;11.00;;;;;;;0.84;78.03;97646.09;103092;1320;113407;-67
2021/11/30 04:07:58;;;;;;;23.10;10.60;;;;;;;0.85;78.20;97648.14;102889;1319;99252;-67
2021/11/30 04:10:26;;;;;;;24.60;11.90;;;;;;;0.86;78.18;97645.09;102981;1316;108509;-67
2021/11/30 04:12:55;;;;;;;22.60;10.80;;;;;;;0.87;78.28;97645.77;103015;1316;99695;-67
2021/11/30 04:15:26;;;;;;;24.90;11.20;;;;;;;0.88;78.04;97646.92;103061;1317;99345;-68
2021/11/30 04:17:57;;;;;;;22.50;10.30;;;;;;;0.88;78.16;97649.20;103103;1323;113968;-67
2021/11/30 04:20:24;;;;;;;21.70;9.90;;;;;;;0.88;78.21;97649.19;103038;1323;96670;-67
2021/11/30 04:22:52;;;;;;;25.10;10.90;;;;;;;0.88;78.13;97646.91;103082;1316;108085;-67
2021/11/30 04:25:21;;;;;;;22.80;9.50;;;;;;;0.89;78.14;97651.42;103058;1316;99278;-67
2021/11/30 04:27:51;;;;;;;24.70;10.70;;;;;;;0.87;78.23;97652.89;103115;1319;99344;-68
2021/11/30 04:30:19;;;;;;;22.10;10.70;;;;;;;0.87;78.21;97655.20;103030;1323;111704;-68
2021/11/30 04:32:49;;;;;;;24.50;11.30;;;;;;;0.86;78.07;97651.57;103191;1316;99290;-69
2021/11/30 04:35:20;;;;;;;23.80;11.10;;;;;;;0.85;78.18;97643.96;103202;1316;107846;-68
2021/11/30 04:37:48;;;;;;;23.70;10.30;;;;;;;0.85;78.06;97646.92;103075;1316;99294;-69
2021/11/30 04:40:16;;;;;;;22.50;10.00;;;;;;;0.85;78.28;97651.10;103125;1321;99258;-67
2021/11/30 04:42:48;;;;;;;24.50;11.40;;;;;;;0.85;78.07;97653.38;103058;1320;113321;-67
2021/11/30 04:47:52;;;;;;;22.90;10.40;;;;;;;0.85;78.18;97656.52;103154;1316;107954;-68
2021/11/30 04:50:26;;;;;;;21.90;9.90;;;;;;;0.85;78.07;97663.00;103142;1316;99338;-68
2021/11/30 04:52:57;;;;;;;24.50;11.00;;;;;;;0.84;78.13;97668.25;103101;1316;99239;-68
2021/11/30 04:55:30;;;;;;;25.90;11.50;;;;;;;0.83;78.18;97674.41;103038;1317;113464;-68
2021/11/30 04:58:03;;;;;;;25.00;11.00;;;;;;;0.82;78.13;97672.38;103014;1317;99262;-70
2021/11/30 05:00:32;;;;;;;24.60;11.50;;;;;;;0.83;78.10;97672.49;103056;1317;107926;-68
2021/11/30 05:03:07;;;;;;;22.70;10.50;;;;;;;0.84;78.12;97675.09;103062;1316;97702;-69
2021/11/30 05:05:36;;;;;;;24.20;10.80;;;;;;;0.85;78.34;97680.27;102989;1317;99230;-68
2021/11/30 05:08:07;;;;;;;27.50;11.10;;;;;;;0.85;78.05;97683.20;103060;1322;113285;-68
2021/11/30 05:10:35;;;;;;;23.00;11.10;;;;;;;0.85;78.00;97682.69;103062;1316;99284;-68
2021/11/30 05:13:03;;;;;;;26.40;12.10;;;;;;;0.86;78.08;97684.04;102966;1322;108535;-68
2021/11/30 05:15:32;;;;;;;24.50;11.30;;;;;;;0.86;78.11;97688.94;102994;1317;99272;-68
2021/11/30 05:18:04;;;;;;;24.00;10.90;;;;;;;0.85;78.03;97696.11;103134;1316;99900;-68
2021/11/30 05:20:35;;;;;;;23.00;11.30;;;;;;;0.85;77.97;97697.89;103189;1322;113308;-68
2021/11/30 05:23:03;;;;;;;25.60;10.50;;;;;;;0.85;77.97;97698.23;103114;1316;99204;-68
2021/11/30 05:25:37;;;;;;;23.40;10.60;;;;;;;0.86;78.02;97702.15;103003;1317;107847;-66
2021/11/30 05:28:06;;;;;;;21.70;10.80;;;;;;;0.86;78.07;97703.91;103124;1319;99515;-67
2021/11/30 05:30:37;;;;;;;24.60;11.50;;;;;;;0.85;78.05;97708.67;103116;1316;99313;-69
2021/11/30 05:33:11;;;;;;;26.30;11.80;;;;;;;0.85;78.06;97708.35;103085;1316;113454;-67
2021/11/30 05:35:41;;;;;;;26.50;11.70;;;;;;;0.85;77.96;97709.20;103078;1317;99354;-67
2021/11/30 05:38:12;;;;;;;24.80;11.20;;;;;;;0.88;77.97;97714.83;103108;1323;107576;-69
2021/11/30 05:40:43;;;;;;;24.70;12.00;;;;;;;0.87;77.85;97710.52;103091;1316;99316;-69
2021/11/30 05:43:13;;;;;;;23.70;11.70;;;;;;;0.88;77.98;97716.20;103023;1320;99278;-68
2021/11/30 05:45:44;;;;;;;23.70;11.80;;;;;;;0.89;78.10;97714.23;103112;1316;112577;-67
2021/11/30 05:48:14;;;;;;;22.60;10.10;;;;;;;0.89;77.90;97715.10;103098;1316;99271;-68
2021/11/30 05:50:43;;;;;;;26.50;11.40;;;;;;;0.89;78.17;97712.16;102999;1316;108184;-67
2021/11/30 05:53:11;;;;;;;24.30;11.20;;;;;;;0.89;77.92;97715.48;102985;1316;99291;-68
2021/11/30 05:55:47;;;;;;;23.60;11.30;;;;;;;0.89;77.99;97721.39;103482;1316;96994;-68
2021/11/30 05:58:15;;;;;;;28.00;13.30;;;;;;;0.91;77.82;97722.02;103094;1316;113492;-68
2021/11/30 06:00:43;;;;;;;26.90;12.30;;;;;;;0.89;77.97;97720.14;103068;1316;99307;-68
2021/11/30 06:05:56;;;;;;;24.00;12.40;;;;;;;0.90;78.02;97728.34;103080;1317;99374;-68
2021/11/30 06:08:26;;;;;;;25.60;12.60;;;;;;;0.89;78.09;97733.60;103170;1316;99346;-67
2021/11/30 06:10:54;;;;;;;24.90;11.50;;;;;;;0.88;78.05;97734.00;103102;1320;113205;-67
2021/11/30 06:13:23;;;;;;;24.60;11.80;;;;;;;0.87;77.96;97741.72;103144;1316;99239;-68
2021/11/30 06:15:51;;;;;;;26.50;12.50;;;;;;;0.89;77.97;97740.60;103106;1316;108511;-71
2021/11/30 06:18:19;;;;;;;26.80;11.20;;;;;;;0.88;77.94;97742.04;103140;1317;99316;-68
2021/11/30 06:20:49;;;;;;;23.60;11.30;;;;;;;0.88;77.93;97741.50;102861;1317;96561;-67
2021/11/30 06:23:21;;;;;;;22.40;10.20;;;;;;;0.88;77.70;97743.97;103095;1317;113459;-68
2021/11/30 06:25:52;;;;;;;23.50;10.20;;;;;;;0.89;77.94;97750.01;103115;1316;99258;-68
2021/11/30 06:28:23;;;;;;;23.00;10.40;;;;;;;0.89;77.95;97754.56;103031;1316;108983;-68
2021/11/30 06:30:52;;;;;;;20.40;8.90;;;;;;;0.87;77.85;97749.45;103112;1317;98544;-66
2021/11/30 06:33:21;;;;;;;22.40;10.60;;;;;;;0.86;77.71;97752.25;103151;1316;97627;-68
2021/11/30 06:35:51;;;;;;;25.30;10.80;;;;;;;0.86;77.68;97749.66;103113;1316;113505;-68
2021/11/30 06:38:19;;;;;;;22.60;10.00;;;;;;;0.85;77.79;97747.45;103097;1322;99247;-67
2021/11/30 06:40:48;;;;;;;22.80;10.70;;;;;;;0.85;77.80;97750.94;103026;1320;108517;-67
2021/11/30 06:43:15;;;;;;;26.40;11.20;;;;;;;0.84;77.91;97752.19;103190;1320;99464;-66
2021/11/30 06:45:44;;;;;;;23.40;10.60;;;;;;;0.83;77.65;97747.52;103045;1323;99206;-67
2021/11/30 06:48:15;;;;;;;23.40;9.90;;;;;;;0.84;77.77;97746.81;103096;1316;113605;-67
2021/11/30 06:50:45;;;;;;;19.60;7.80;;;;;;;0.84;77.62;97749.23;103146;1317;99342;-67
2021/11/30 06:53:13;;;;;;;22.80;9.20;;;;;;;0.84;77.76;97751.14;103036;1316;106211;-68
2021/11/30 06:55:40;;;;;;;23.40;10.50;;;;;;;0.82;77.72;97748.84;102988;1316;99104;-68
2021/11/30 06:58:08;;;;;;;22.40;10.10;;;;;;;0.81;77.45;97751.33;103061;1316;99267;-66
2021/11/30 07:00:36;;;;;;;22.80;9.70;;;;;;;0.83;77.68;97751.91;103066;1320;113406;-67
2021/11/30 07:03:07;;;;;;;22.90;9.60;;;;;;;0.84;77.71;97756.04;103022;1320;99201;-68
2021/11/30 07:05:40;;;;;;;23.30;11.50;;;;;;;0.85;77.63;97750.04;103026;1316;108559;-68
2021/11/30 07:11:04;;;;;;;23.60;10.20;;;;;;;0.86;77.52;97748.77;104010;1316;99218;-69
2021/11/30 07:13:35;;;;;;;23.00;10.90;;;;;;;0.87;77.55;97744.86;103034;1316;113605;-67
2021/11/30 07:16:06;;;;;;;24.80;11.60;;;;;;;0.91;77.60;97745.90;102871;1322;99409;-68
2021/11/30 07:18:35;;;;;;;22.90;10.60;;;;;;;0.92;77.57;97747.08;103000;1317;108227;-68
2021/11/30 07:21:04;;;;;;;24.30;10.60;;;;;;;0.93;77.62;97746.33;103054;1320;100362;-67
2021/11/30 07:23:35;;;;;;;24.40;11.70;;;;;;;0.93;77.57;97747.54;103073;1316;98438;-68
2021/11/30 07:26:03;;;;;;;22.40;10.90;;;;;;;0.94;77.51;97744.55;103096;1320;112699;-67
2021/11/30 07:28:34;;;;;;;27.00;12.30;;;;;;;0.96;77.57;97743.89;103065;1317;99272;-67
2021/11/30 07:31:10;;;;;;;23.60;10.40;;;;;;;0.98;77.47;97742.90;103129;1317;108402;-68
2021/11/30 07:33:48;;;;;;;22.80;9.80;;;;;;;1.01;77.47;97741.19;102971;1316;96621;-68
2021/11/30 07:36:20;;;;;;;24.70;10.70;;;;;;;1.03;77.59;97746.29;102960;1322;99342;-68
2021/11/30 07:38:48;;;;;;;22.40;10.40;;;;;;;1.07;77.42;97751.48;103088;1316;112894;-69
2021/11/30 07:41:22;;;;;;;23.00;9.80;;;;;;;1.12;77.45;97751.03;103030;1315;99342;-70
2021/11/30 07:43:51;;;;;;;23.40;10.30;;;;;;;1.15;77.37;97755.80;103122;1316;107840;-69
2021/11/30 07:46:19;;;;;;;22.70;9.60;;;;;;;1.15;77.35;97756.10;103036;1322;99345;-68
2021/11/30 07:48:48;;;;;;;22.70;9.60;;;;;;;1.18;77.29;97755.26;103125;1316;99332;-68
2021/11/30 07:51:19;;;;;;;20.80;8.60;;;;;;;1.25;77.41;97752.77;103073;1316;113931;-69
2021/11/30 07:53:51;;;;;;;19.80;8.10;;;;;;;1.33;77.57;97751.45;103067;1316;99406;-69
2021/11/30 07:56:19;;;;;;;20.40;8.40;;;;;;;1.39;77.19;97754.44;102928;1316;108640;-70
2021/11/30 07:58:47;;;;;;;22.40;8.10;;;;;;;1.44;77.54;97748.21;103087;1319;99126;-71
2021/11/30 08:01:16;;;;;;;18.10;7.40;;;;;;;1.47;77.10;97750.83;103020;1316;98849;-68
2021/11/30 08:03:46;;;;;;;21.40;7.90;;;;;;;1.51;77.11;97747.66;103088;1319;112593;-70
2021/11/30 08:06:15;;;;;;;16.60;7.30;;;;;;;1.48;76.89;97747.48;103108;1316;99362;-70
2021/11/30 08:08:48;;;;;;;19.60;7.20;;;;;;;1.45;77.07;97746.09;103153;1316;107745;-70
2021/11/30 08:11:18;;;;;;;19.60;8.50;;;;;;;1.42;76.92;97747.80;103000;1316;99123;-71
2021/11/30 08:13:49;;;;;;;20.00;8.10;;;;;;;1.41;76.94;97744.73;102968;1316;99237;-70
2021/11/30 08:16:22;;;;;;;18.60;7.90;;;;;;;1.43;76.88;97741.44;103029;1320;112852;-68
2021/11/30 08:18:52;;;;;;;18.80;7.40;;;;;;;1.45;76.94;97738.08;103205;1317;97805;-72
2021/11/30 08:21:20;;;;;;;18.20;7.20;;;;;;;1.49;76.89;97740.09;103079;1317;107851;-70
2021/11/30 08:23:48;;;;;;;17.90;8.00;;;;;;;1.53;76.67;97738.65;103040;1316;97249;-69
2021/11/30 08:26:15;;;;;;;19.70;8.60;;;;;;;1.60;76.72;97742.10;103049;1316;97775;-68
2021/11/30 08:28:43;;;;;;;17.20;8.30;;;;;;;1.67;76.89;97743.79;103448;1316;112848;-68
2021/11/30 08:31:13;;;;;;;19.80;7.70;;;;;;;1.75;76.92;97747.15;103073;1316;97973;-69
2021/11/30 08:33:41;;;;;;;19.20;7.20;;;;;;;1.84;77.01;97745.05;103045;1316;108434;-69
2021/11/30 08:36:13;;;;;;;21.50;8.50;;;;;;;1.96;77.25;97749.80;102979;1316;96679;-69
2021/11/30 08:38:41;;;;;;;19.20;9.10;;;;;;;2.06;77.06;97746.78;103099;1317;99246;-69
2021/11/30 08:41:09;;;;;;;20.50;9.10;;;;;;;2.07;76.96;97751.62;103039;1316;111730;-69
2021/11/30 08:43:37;;;;;;;21.90;8.70;;;;;;;2.08;76.96;97754.85;103041;1317;97167;-70
2021/11/30 08:46:05;;;;;;;19.20;8.00;;;;;;;2.04;76.88;97749.52;103005;1316;108426;-69
2021/11/30 08:48:33;;;;;;;20.00;8.00;;;;;;;1.96;76.81;97749.80;103012;1320;99973;-69
2021/11/30 08:51:03;;;;;;;21.30;8.80;;;;;;;1.93;76.57;97747.53;103082;1319;99390;-69
2021/11/30 08:53:34;;;;;;;37.30;17.40;;;;;;;1.87;76.40;97742.44;103069;1317;111821;-69
2021/11/30 08:56:08;;;;;;;22.60;9.80;;;;;;;1.89;76.20;97735.89;103078;1317;99299;-69
2021/11/30 08:58:37;;;;;;;22.10;9.80;;;;;;;1.87;76.62;97733.88;103144;1316;109601;-68
2021/11/30 09:01:08;;;;;;;22.00;9.50;;;;;;;1.99;76.51;97729.54;103084;1317;97971;-68
2021/11/30 09:03:36;;;;;;;24.20;10.10;;;;;;;2.49;76.47;97722.20;103033;1317;99225;-69
2021/11/30 09:06:04;;;;;;;22.30;9.20;;;;;;;3.15;76.46;97716.18;103053;1316;112915;-71
2021/11/30 09:08:33;;;;;;;20.70;8.10;;;;;;;3.54;76.76;97712.60;103077;1317;99275;-70
2021/11/30 09:11:01;;;;;;;20.80;8.10;;;;;;;3.59;76.48;97707.36;103020;1316;108487;-69
2021/11/30 09:13:30;;;;;;;19.00;8.30;;;;;;;3.55;76.42;97704.64;102957;1317;100380;-70
2021/11/30 09:16:02;;;;;;;20.10;8.70;;;;;;;3.52;76.19;97701.16;103111;1317;99313;-69
2021/11/30 09:18:32;;;;;;;19.50;7.20;;;;;;;3.55;76.19;97702.54;103021;1316;113714;-70
2021/11/30 09:21:02;;;;;;;17.80;7.10;;;;;;;3.45;76.10;97694.60;102934;1316;99090;-68
2021/11/30 09:23:30;;;;;;;20.80;8.00;;;;;;;3.42;76.26;97696.40;103088;1316;107463;-69
2021/11/30 09:25:59;;;;;;;19.80;7.60;;;;;;;3.37;76.23;97697.38;103180;1316;99371;-69
2021/11/30 09:28:31;;;;;;;21.10;7.20;;;;;;;3.26;76.09;97701.45;103048;1316;98488;-71
2021/11/30 09:30:59;;;;;;;15.40;6.20;;;;;;;3.14;75.81;97705.36;102955;1316;113434;-70
2021/11/30 09:33:44;;;;;;;16.10;7.00;;;;;;;2.96;75.79;97699.87;102981;1316;99307;-72
2021/11/30 09:36:12;;;;;;;16.70;6.20;;;;;;;2.89;76.07;97688.71;102893;1316;107853;-72
2021/11/30 09:38:40;;;;;;;17.80;6.90;;;;;;;2.79;75.80;97685.30;102890;1316;99258;-70
2021/11/30 09:41:08;;;;;;;18.70;6.80;;;;;;;2.72;75.85;97688.55;102928;1316;100144;-69
2021/11/30 09:43:54;;;;;;;18.60;6.80;;;;;;;2.66;75.94;97683.68;102951;1315;112209;-70
2021/11/30 09:46:26;;;;;;;17.60;6.70;;;;;;;2.70;75.87;97683.09;103010;1316;98928;-70
2021/11/30 09:48:55;;;;;;;20.50;7.90;;;;;;;2.69;75.64;97678.59;103088;1316;108408;-69
2021/11/30 09:51:23;;;;;;;19.50;7.90;;;;;;;2.66;75.85;97673.66;102931;1316;99701;-70
2021/11/30 09:53:51;;;;;;;20.20;8.40;;;;;;;2.65;75.36;97666.23;103023;1320;99284;-68
2021/11/30 09:56:20;;;;;;;19.20;8.80;;;;;;;2.61;75.78;97657.55;102898;1316;113400;-72
2021/11/30 09:58:48;;;;;;;21.00;9.10;;;;;;;2.61;75.63;97655.80;102874;1315;99265;-72
2021/11/30 10:01:17;;;;;;;20.80;8.60;;;;;;;2.65;75.33;97657.28;102899;1316;107806;-70
2021/11/30 10:03:46;;;;;;;22.50;11.10;;;;;;;2.68;75.71;97646.27;102976;1315;99199;-70
2021/11/30 10:06:14;;;;;;;22.80;10.40;;;;;;;2.69;75.29;97645.84;103033;1316;99396;-70
2021/11/30 10:08:46;;;;;;;22.50;10.60;;;;;;;2.73;75.09;97643.02;103065;1316;113113;-70
2021/11/30 10:11:30;;;;;;;23.70;10.30;;;;;;;2.72;75.18;97644.95;102998;1316;99310;-69
2021/11/30 10:14:22;;;;;;;24.40;11.30;;;;;;;2.70;75.12;97641.45;102943;1315;107628;-70
2021/11/30 10:19:50;;;;;;;21.50;10.10;;;;;;;2.63;74.87;97620.66;103011;1316;99258;-69
2021/11/30 10:22:40;;;;;;;23.80;10.90;;;;;;;2.64;74.68;97624.11;102938;1316;112874;-69
2021/11/30 10:25:12;;;;;;;21.80;9.80;;;;;;;2.71;75.10;97622.31;103109;1316;99326;-69
2021/11/30 10:27:49;;;;;;;20.50;8.60;;;;;;;2.71;74.50;97625.23;102856;1315;107860;-69
2021/11/30 10:30:23;;;;;;;19.90;8.60;;;;;;;2.67;74.61;97612.55;102874;1316;99231;-70
2021/11/30 10:32:53;;;;;;;21.00;8.90;;;;;;;2.66;74.42;97606.65;102755;1316;99289;-69
2021/11/30 10:35:25;;;;;;;19.40;8.40;;;;;;;2.70;74.48;97601.66;102860;1316;112568;-71
2021/11/30 10:37:57;;;;;;;20.30;8.10;;;;;;;2.70;74.38;97595.02;103018;1315;99230;-68
2021/11/30 10:40:28;;;;;;;19.20;8.50;;;;;;;2.71;74.40;97588.66;103070;1316;108763;-70
2021/11/30 10:43:00;;;;;;;17.50;7.40;;;;;;;2.75;74.68;97588.60;103139;1316;99222;-72
2021/11/30 10:45:43;;;;;;;20.90;7.40;;;;;;;2.74;73.97;97581.81;103078;1316;99328;-73
2021/11/30 10:48:24;;;;;;;17.80;6.80;;;;;;;2.67;73.92;97576.85;103106;1316;112847;-71
2021/11/30 10:50:57;;;;;;;16.70;6.30;;;;;;;2.62;73.97;97570.54;103003;1316;99252;-70
2021/11/30 10:53:30;;;;;;;17.80;7.10;;;;;;;2.55;73.80;97564.83;102594;1317;468738;-70
2021/11/30 10:56:03;;;;;;;17.80;6.20;;;;;;;2.50;73.65;97559.91;103038;1317;99330;-71
2021/11/30 10:58:37;;;;;;;14.00;6.30;;;;;;;2.44;73.75;97558.54;103099;1316;99260;-71
2021/11/30 11:01:14;;;;;;;15.60;6.10;;;;;;;2.40;73.65;97557.77;103105;1320;112962;-70
2021/11/30 11:04:01;;;;;;;17.30;6.90;;;;;;;2.36;73.40;97552.55;103184;1320;99280;-71
2021/11/30 11:06:31;;;;;;;16.60;7.00;;;;;;;2.33;73.44;97551.85;103092;1316;107851;-69
2021/11/30 11:09:08;;;;;;;;;;;;;;;2.27;73.53;97548.90;102958;1318;99381;-70
2021/11/30 11:11:45;;;;;;;15.90;6.10;;;;;;;2.21;73.17;97543.86;103096;1316;99356;-69
2021/11/30 11:14:22;;;;;;;20.50;7.50;;;;;;;2.19;73.53;97536.44;102967;1316;112942;-69
2021/11/30 11:17:00;;;;;;;16.20;7.20;;;;;;;2.21;73.65;97535.48;102967;1319;99445;-69
2021/11/30 11:19:43;;;;;;;16.10;6.10;;;;;;;2.26;73.45;97524.85;102925;1316;109131;-70
2021/11/30 11:22:19;;;;;;;13.00;5.90;;;;;;;2.30;73.21;97517.23;102948;1316;99384;-68
2021/11/30 11:24:51;;;;;;;15.00;6.20;;;;;;;2.38;73.41;97515.02;102917;1317;97830;-69
2021/11/30 11:27:37;;;;;;;16.50;6.30;;;;;;;2.46;73.39;97509.56;102933;1320;112630;-70
2021/11/30 11:30:08;;;;;;;16.00;5.90;;;;;;;2.57;73.30;97502.08;102967;1316;99312;-69
2021/11/30 11:32:36;;;;;;;14.70;5.80;;;;;;;2.66;73.69;97492.52;102941;1319;107892;-68
2021/11/30 11:35:07;;;;;;;14.60;5.10;;;;;;;2.74;73.41;97486.39;102913;1317;99313;-69
2021/11/30 11:37:38;;;;;;;14.50;5.60;;;;;;;2.77;73.31;97481.52;102900;1316;99196;-68
2021/11/30 11:40:08;;;;;;;12.60;4.50;;;;;;;2.78;73.24;97479.31;102853;1317;112777;-70
2021/11/30 11:42:36;;;;;;;10.80;4.80;;;;;;;2.77;73.36;97473.06;103071;1316;99348;-69
2021/11/30 11:45:06;;;;;;;12.50;4.90;;;;;;;2.79;73.20;97462.31;102911;1316;108161;-69
2021/11/30 11:47:35;;;;;;;10.50;4.30;;;;;;;2.80;73.27;97455.21;102964;1317;99377;-71
2021/11/30 11:50:38;;;;;;;11.00;4.10;;;;;;;2.78;73.02;97450.44;102968;1320;96686;-70
2021/11/30 11:53:32;;;;;;;11.50;5.00;;;;;;;2.76;73.18;97441.98;102907;1319;112871;-71